sensor_id;sensor_type;location;lat;lon;timestamp;temperature;humidity
41290;DHT22;36117;46.680;11.154;2022-08-24T00:01:06;25.00;42.50
41290;DHT22;36117;46.680;11.154;2022-08-24T00:03:33;24.90;41.90
41290;DHT22;36117;46.680;11.154;2022-08-24T00:06:00;24.80;42.10
41290;DHT22;36117;46.680;11.154;2022-08-24T00:08:27;25.00;41.60
41290;DHT22;36117;46.680;11.154;2022-08-24T00:10:53;24.90;41.40
41290;DHT22;36117;46.680;11.154;2022-08-24T00:13:19;24.90;41.50
41290;DHT22;36117;46.680;11.154;2022-08-24T00:15:45;24.70;41.90
41290;DHT22;36117;46.680;11.154;2022-08-24T00:18:11;24.80;41.80
41290;DHT22;36117;46.680;11.154;2022-08-24T00:20:38;24.80;42.80
41290;DHT22;36117;46.680;11.154;2022-08-24T00:23:05;24.50;43.00
41290;DHT22;36117;46.680;11.154;2022-08-24T00:25:31;24.50;43.20
41290;DHT22;36117;46.680;11.154;2022-08-24T00:27:57;24.60;43.80
41290;DHT22;36117;46.680;11.154;2022-08-24T00:30:24;24.50;43.70
41290;DHT22;36117;46.680;11.154;2022-08-24T00:32:50;24.60;43.50
41290;DHT22;36117;46.680;11.154;2022-08-24T00:35:17;24.60;43.30
41290;DHT22;36117;46.680;11.154;2022-08-24T00:37:45;24.50;43.50
41290;DHT22;36117;46.680;11.154;2022-08-24T00:40:15;24.60;43.80
41290;DHT22;36117;46.680;11.154;2022-08-24T00:42:41;24.30;44.30
41290;DHT22;36117;46.680;11.154;2022-08-24T00:45:09;24.20;43.60
41290;DHT22;36117;46.680;11.154;2022-08-24T00:47:42;24.20;43.70
41290;DHT22;36117;46.680;11.154;2022-08-24T00:50:12;24.30;43.40
41290;DHT22;36117;46.680;11.154;2022-08-24T00:52:47;23.70;44.10
41290;DHT22;36117;46.680;11.154;2022-08-24T00:55:20;23.60;46.20
41290;DHT22;36117;46.680;11.154;2022-08-24T00:57:58;22.30;48.90
41290;DHT22;36117;46.680;11.154;2022-08-24T01:00:29;21.80;50.40
41290;DHT22;36117;46.680;11.154;2022-08-24T01:02:59;21.50;51.40
41290;DHT22;36117;46.680;11.154;2022-08-24T01:05:30;21.70;50.90
41290;DHT22;36117;46.680;11.154;2022-08-24T01:07:57;22.10;49.90
41290;DHT22;36117;46.680;11.154;2022-08-24T01:10:25;22.40;49.00
41290;DHT22;36117;46.680;11.154;2022-08-24T01:12:54;22.80;48.10
41290;DHT22;36117;46.680;11.154;2022-08-24T01:15:21;22.90;46.90
41290;DHT22;36117;46.680;11.154;2022-08-24T01:17:48;23.20;45.70
41290;DHT22;36117;46.680;11.154;2022-08-24T01:20:33;22.80;45.50
41290;DHT22;36117;46.680;11.154;2022-08-24T01:26:00;22.80;45.70
41290;DHT22;36117;46.680;11.154;2022-08-24T01:28:26;23.20;45.30
41290;DHT22;36117;46.680;11.154;2022-08-24T01:30:55;23.20;45.10
41290;DHT22;36117;46.680;11.154;2022-08-24T01:33:27;23.30;44.80
41290;DHT22;36117;46.680;11.154;2022-08-24T01:35:57;23.10;44.30
41290;DHT22;36117;46.680;11.154;2022-08-24T01:38:24;23.20;44.70
41290;DHT22;36117;46.680;11.154;2022-08-24T01:40:55;23.10;44.70
41290;DHT22;36117;46.680;11.154;2022-08-24T01:43:23;23.20;44.80
41290;DHT22;36117;46.680;11.154;2022-08-24T01:45:49;23.50;44.50
41290;DHT22;36117;46.680;11.154;2022-08-24T01:48:15;23.70;44.10
41290;DHT22;36117;46.680;11.154;2022-08-24T01:50:41;23.20;44.10
41290;DHT22;36117;46.680;11.154;2022-08-24T01:53:08;23.20;44.50
41290;DHT22;36117;46.680;11.154;2022-08-24T01:55:35;23.30;44.60
41290;DHT22;36117;46.680;11.154;2022-08-24T01:58:01;23.30;44.60
41290;DHT22;36117;46.680;11.154;2022-08-24T02:00:28;23.60;44.40
41290;DHT22;36117;46.680;11.154;2022-08-24T02:02:54;23.50;44.30
41290;DHT22;36117;46.680;11.154;2022-08-24T02:05:22;23.50;44.40
41290;DHT22;36117;46.680;11.154;2022-08-24T02:07:49;23.70;44.60
41290;DHT22;36117;46.680;11.154;2022-08-24T02:10:15;23.40;44.80
41290;DHT22;36117;46.680;11.154;2022-08-24T02:12:43;23.40;45.30
41290;DHT22;36117;46.680;11.154;2022-08-24T02:15:11;23.20;45.30
41290;DHT22;36117;46.680;11.154;2022-08-24T02:17:37;23.20;45.20
41290;DHT22;36117;46.680;11.154;2022-08-24T02:20:05;23.10;45.10
41290;DHT22;36117;46.680;11.154;2022-08-24T02:22:31;23.00;45.30
41290;DHT22;36117;46.680;11.154;2022-08-24T02:24:57;22.90;45.10
41290;DHT22;36117;46.680;11.154;2022-08-24T02:27:23;23.00;45.00
41290;DHT22;36117;46.680;11.154;2022-08-24T02:29:48;23.10;44.60
41290;DHT22;36117;46.680;11.154;2022-08-24T02:32:14;23.00;44.80
41290;DHT22;36117;46.680;11.154;2022-08-24T02:34:41;23.00;44.30
41290;DHT22;36117;46.680;11.154;2022-08-24T02:37:08;23.20;44.50
41290;DHT22;36117;46.680;11.154;2022-08-24T02:39:34;23.20;44.80
41290;DHT22;36117;46.680;11.154;2022-08-24T02:42:00;23.10;45.00
41290;DHT22;36117;46.680;11.154;2022-08-24T02:44:27;23.00;44.70
41290;DHT22;36117;46.680;11.154;2022-08-24T02:46:52;23.20;44.90
41290;DHT22;36117;46.680;11.154;2022-08-24T02:49:18;23.10;44.60
41290;DHT22;36117;46.680;11.154;2022-08-24T02:51:46;23.00;45.10
41290;DHT22;36117;46.680;11.154;2022-08-24T02:54:13;22.80;45.60
41290;DHT22;36117;46.680;11.154;2022-08-24T02:56:42;23.10;45.90
41290;DHT22;36117;46.680;11.154;2022-08-24T02:59:08;22.90;46.40
41290;DHT22;36117;46.680;11.154;2022-08-24T03:01:34;22.60;46.80
41290;DHT22;36117;46.680;11.154;2022-08-24T03:04:00;22.10;48.10
41290;DHT22;36117;46.680;11.154;2022-08-24T03:06:25;21.80;48.90
41290;DHT22;36117;46.680;11.154;2022-08-24T03:08:51;21.80;48.90
41290;DHT22;36117;46.680;11.154;2022-08-24T03:11:17;21.60;49.10
41290;DHT22;36117;46.680;11.154;2022-08-24T03:13:43;21.80;49.20
41290;DHT22;36117;46.680;11.154;2022-08-24T03:16:09;22.00;48.60
41290;DHT22;36117;46.680;11.154;2022-08-24T03:18:35;22.30;48.40
41290;DHT22;36117;46.680;11.154;2022-08-24T03:21:01;22.20;47.90
41290;DHT22;36117;46.680;11.154;2022-08-24T03:23:28;22.20;47.90
41290;DHT22;36117;46.680;11.154;2022-08-24T03:25:54;22.10;48.00
41290;DHT22;36117;46.680;11.154;2022-08-24T03:28:22;22.30;48.00
41290;DHT22;36117;46.680;11.154;2022-08-24T03:30:48;22.50;47.80
41290;DHT22;36117;46.680;11.154;2022-08-24T03:33:15;22.50;47.70
41290;DHT22;36117;46.680;11.154;2022-08-24T03:35:41;22.30;48.10
41290;DHT22;36117;46.680;11.154;2022-08-24T03:38:07;22.10;48.60
41290;DHT22;36117;46.680;11.154;2022-08-24T03:40:34;22.30;48.60
41290;DHT22;36117;46.680;11.154;2022-08-24T03:43:01;22.10;49.10
41290;DHT22;36117;46.680;11.154;2022-08-24T03:45:28;22.30;48.90
41290;DHT22;36117;46.680;11.154;2022-08-24T03:47:54;22.00;49.10
41290;DHT22;36117;46.680;11.154;2022-08-24T03:50:20;22.20;49.00
41290;DHT22;36117;46.680;11.154;2022-08-24T03:52:47;22.30;48.50
41290;DHT22;36117;46.680;11.154;2022-08-24T03:55:13;22.00;48.70
41290;DHT22;36117;46.680;11.154;2022-08-24T03:57:39;21.90;49.00
41290;DHT22;36117;46.680;11.154;2022-08-24T04:00:08;21.80;49.10
41290;DHT22;36117;46.680;11.154;2022-08-24T04:02:34;21.80;49.30
41290;DHT22;36117;46.680;11.154;2022-08-24T04:05:00;21.90;49.30
41290;DHT22;36117;46.680;11.154;2022-08-24T04:07:26;22.00;49.40
41290;DHT22;36117;46.680;11.154;2022-08-24T04:09:52;22.10;49.10
41290;DHT22;36117;46.680;11.154;2022-08-24T04:12:18;22.30;48.90
41290;DHT22;36117;46.680;11.154;2022-08-24T04:14:44;22.00;48.70
41290;DHT22;36117;46.680;11.154;2022-08-24T04:17:10;22.00;48.70
41290;DHT22;36117;46.680;11.154;2022-08-24T04:19:39;22.00;48.70
41290;DHT22;36117;46.680;11.154;2022-08-24T04:22:23;22.00;48.90
41290;DHT22;36117;46.680;11.154;2022-08-24T04:24:49;22.20;48.90
41290;DHT22;36117;46.680;11.154;2022-08-24T04:27:15;22.40;48.70
41290;DHT22;36117;46.680;11.154;2022-08-24T04:29:41;22.20;48.80
41290;DHT22;36117;46.680;11.154;2022-08-24T04:32:08;21.90;49.10
41290;DHT22;36117;46.680;11.154;2022-08-24T04:34:34;21.50;50.60
41290;DHT22;36117;46.680;11.154;2022-08-24T04:37:00;21.20;51.30
41290;DHT22;36117;46.680;11.154;2022-08-24T04:39:26;21.10;51.20
41290;DHT22;36117;46.680;11.154;2022-08-24T04:41:52;20.50;52.70
41290;DHT22;36117;46.680;11.154;2022-08-24T04:44:18;20.50;52.80
41290;DHT22;36117;46.680;11.154;2022-08-24T04:46:43;20.50;53.10
41290;DHT22;36117;46.680;11.154;2022-08-24T04:49:10;20.60;52.80
41290;DHT22;36117;46.680;11.154;2022-08-24T04:51:36;20.90;52.10
41290;DHT22;36117;46.680;11.154;2022-08-24T04:54:04;21.20;51.70
41290;DHT22;36117;46.680;11.154;2022-08-24T04:56:30;21.50;51.10
41290;DHT22;36117;46.680;11.154;2022-08-24T04:58:56;21.70;50.10
41290;DHT22;36117;46.680;11.154;2022-08-24T05:01:24;21.40;50.50
41290;DHT22;36117;46.680;11.154;2022-08-24T05:03:52;21.40;51.00
41290;DHT22;36117;46.680;11.154;2022-08-24T05:06:22;21.60;50.80
41290;DHT22;36117;46.680;11.154;2022-08-24T05:08:48;21.80;50.70
41290;DHT22;36117;46.680;11.154;2022-08-24T05:11:16;21.90;50.30
41290;DHT22;36117;46.680;11.154;2022-08-24T05:13:42;22.00;50.30
41290;DHT22;36117;46.680;11.154;2022-08-24T05:16:11;21.90;49.70
41290;DHT22;36117;46.680;11.154;2022-08-24T05:18:38;21.70;49.80
41290;DHT22;36117;46.680;11.154;2022-08-24T05:21:11;21.50;50.20
41290;DHT22;36117;46.680;11.154;2022-08-24T05:23:38;21.50;51.20
41290;DHT22;36117;46.680;11.154;2022-08-24T05:26:06;21.60;51.10
41290;DHT22;36117;46.680;11.154;2022-08-24T05:28:33;21.60;51.20
41290;DHT22;36117;46.680;11.154;2022-08-24T05:31:18;21.60;51.30
41290;DHT22;36117;46.680;11.154;2022-08-24T05:33:45;22.00;51.10
41290;DHT22;36117;46.680;11.154;2022-08-24T05:36:21;22.10;50.50
41290;DHT22;36117;46.680;11.154;2022-08-24T05:38:49;21.90;50.40
41290;DHT22;36117;46.680;11.154;2022-08-24T05:41:16;21.60;51.10
41290;DHT22;36117;46.680;11.154;2022-08-24T05:43:43;21.90;50.80
41290;DHT22;36117;46.680;11.154;2022-08-24T05:46:09;22.10;50.10
41290;DHT22;36117;46.680;11.154;2022-08-24T05:48:35;21.20;50.70
41290;DHT22;36117;46.680;11.154;2022-08-24T05:51:03;21.20;51.00
41290;DHT22;36117;46.680;11.154;2022-08-24T05:53:29;21.00;51.40
41290;DHT22;36117;46.680;11.154;2022-08-24T05:55:55;20.70;51.90
41290;DHT22;36117;46.680;11.154;2022-08-24T05:58:21;20.60;51.80
41290;DHT22;36117;46.680;11.154;2022-08-24T06:00:47;21.00;51.60
41290;DHT22;36117;46.680;11.154;2022-08-24T06:03:15;21.30;50.90
41290;DHT22;36117;46.680;11.154;2022-08-24T06:05:42;21.60;50.20
41290;DHT22;36117;46.680;11.154;2022-08-24T06:08:09;22.00;49.60
41290;DHT22;36117;46.680;11.154;2022-08-24T06:10:42;22.60;48.60
41290;DHT22;36117;46.680;11.154;2022-08-24T06:13:09;22.80;47.50
41290;DHT22;36117;46.680;11.154;2022-08-24T06:15:36;21.90;48.50
41290;DHT22;36117;46.680;11.154;2022-08-24T06:18:04;22.70;48.20
41290;DHT22;36117;46.680;11.154;2022-08-24T06:20:31;23.50;46.90
41290;DHT22;36117;46.680;11.154;2022-08-24T06:22:57;24.20;45.90
41290;DHT22;36117;46.680;11.154;2022-08-24T06:25:23;24.90;44.30
41290;DHT22;36117;46.680;11.154;2022-08-24T06:28:07;25.80;43.60
41290;DHT22;36117;46.680;11.154;2022-08-24T06:30:32;26.10;41.60
41290;DHT22;36117;46.680;11.154;2022-08-24T06:33:03;26.30;41.20
41290;DHT22;36117;46.680;11.154;2022-08-24T06:35:29;27.10;40.50
41290;DHT22;36117;46.680;11.154;2022-08-24T06:37:55;27.60;39.40
41290;DHT22;36117;46.680;11.154;2022-08-24T06:40:20;28.50;38.20
41290;DHT22;36117;46.680;11.154;2022-08-24T06:42:46;29.10;37.10
41290;DHT22;36117;46.680;11.154;2022-08-24T06:45:13;28.70;37.10
41290;DHT22;36117;46.680;11.154;2022-08-24T06:47:40;29.00;37.20
41290;DHT22;36117;46.680;11.154;2022-08-24T06:50:06;29.40;36.40
41290;DHT22;36117;46.680;11.154;2022-08-24T06:52:34;30.10;35.60
41290;DHT22;36117;46.680;11.154;2022-08-24T06:55:01;30.30;35.20
41290;DHT22;36117;46.680;11.154;2022-08-24T06:57:27;31.10;34.30
41290;DHT22;36117;46.680;11.154;2022-08-24T06:59:53;31.10;34.20
41290;DHT22;36117;46.680;11.154;2022-08-24T07:02:19;31.00;34.40
41290;DHT22;36117;46.680;11.154;2022-08-24T07:04:45;31.50;33.80
41290;DHT22;36117;46.680;11.154;2022-08-24T07:07:11;31.80;33.60
41290;DHT22;36117;46.680;11.154;2022-08-24T07:09:38;32.60;32.00
41290;DHT22;36117;46.680;11.154;2022-08-24T07:12:04;33.00;31.60
41290;DHT22;36117;46.680;11.154;2022-08-24T07:14:30;33.60;30.80
41290;DHT22;36117;46.680;11.154;2022-08-24T07:16:56;33.30;30.70
41290;DHT22;36117;46.680;11.154;2022-08-24T07:19:22;33.20;30.30
41290;DHT22;36117;46.680;11.154;2022-08-24T07:21:48;33.00;30.50
41290;DHT22;36117;46.680;11.154;2022-08-24T07:24:14;31.70;30.70
41290;DHT22;36117;46.680;11.154;2022-08-24T07:26:40;32.30;31.10
41290;DHT22;36117;46.680;11.154;2022-08-24T07:29:10;32.60;30.80
41290;DHT22;36117;46.680;11.154;2022-08-24T07:31:40;33.10;30.60
41290;DHT22;36117;46.680;11.154;2022-08-24T07:34:08;32.40;29.80
41290;DHT22;36117;46.680;11.154;2022-08-24T07:36:35;33.20;30.20
41290;DHT22;36117;46.680;11.154;2022-08-24T07:39:02;33.70;29.70
41290;DHT22;36117;46.680;11.154;2022-08-24T07:41:28;33.10;29.70
41290;DHT22;36117;46.680;11.154;2022-08-24T07:43:56;33.70;30.00
41290;DHT22;36117;46.680;11.154;2022-08-24T07:46:22;31.50;30.80
41290;DHT22;36117;46.680;11.154;2022-08-24T07:48:49;30.50;32.70
41290;DHT22;36117;46.680;11.154;2022-08-24T07:51:20;31.00;32.80
41290;DHT22;36117;46.680;11.154;2022-08-24T07:53:45;31.00;32.90
41290;DHT22;36117;46.680;11.154;2022-08-24T07:56:12;32.20;31.90
41290;DHT22;36117;46.680;11.154;2022-08-24T07:58:38;31.80;31.20
41290;DHT22;36117;46.680;11.154;2022-08-24T08:01:05;32.70;30.80
41290;DHT22;36117;46.680;11.154;2022-08-24T08:03:32;32.20;30.60
41290;DHT22;36117;46.680;11.154;2022-08-24T08:06:05;32.60;29.90
41290;DHT22;36117;46.680;11.154;2022-08-24T08:08:34;33.00;29.70
41290;DHT22;36117;46.680;11.154;2022-08-24T08:11:00;33.30;29.60
41290;DHT22;36117;46.680;11.154;2022-08-24T08:13:27;34.30;29.40
41290;DHT22;36117;46.680;11.154;2022-08-24T08:15:55;34.60;29.50
41290;DHT22;36117;46.680;11.154;2022-08-24T08:18:24;34.80;29.00
41290;DHT22;36117;46.680;11.154;2022-08-24T08:20:50;33.40;29.20
41290;DHT22;36117;46.680;11.154;2022-08-24T08:23:17;34.00;29.60
41290;DHT22;36117;46.680;11.154;2022-08-24T08:26:02;34.30;28.80
41290;DHT22;36117;46.680;11.154;2022-08-24T08:28:29;34.90;28.90
41290;DHT22;36117;46.680;11.154;2022-08-24T08:31:00;34.60;28.80
41290;DHT22;36117;46.680;11.154;2022-08-24T08:33:26;34.40;28.90
41290;DHT22;36117;46.680;11.154;2022-08-24T08:35:59;34.50;28.80
41290;DHT22;36117;46.680;11.154;2022-08-24T08:38:26;35.00;29.10
41290;DHT22;36117;46.680;11.154;2022-08-24T08:50:20;34.60;28.40
41290;DHT22;36117;46.680;11.154;2022-08-24T09:01:51;35.30;28.30
41290;DHT22;36117;46.680;11.154;2022-08-24T09:04:50;34.50;28.70
41290;DHT22;36117;46.680;11.154;2022-08-24T09:18:13;36.00;28.30
41290;DHT22;36117;46.680;11.154;2022-08-24T09:23:36;37.70;26.90
41290;DHT22;36117;46.680;11.154;2022-08-24T09:37:53;40.10;25.90
41290;DHT22;36117;46.680;11.154;2022-08-24T09:40:27;41.00;25.50
41290;DHT22;36117;46.680;11.154;2022-08-24T09:43:16;41.20;25.00
41290;DHT22;36117;46.680;11.154;2022-08-24T10:00:04;40.30;25.30
41290;DHT22;36117;46.680;11.154;2022-08-24T10:08:18;40.10;25.40
41290;DHT22;36117;46.680;11.154;2022-08-24T10:13:37;40.50;24.60
41290;DHT22;36117;46.680;11.154;2022-08-24T10:21:57;40.20;25.30
41290;DHT22;36117;46.680;11.154;2022-08-24T10:27:38;41.50;24.70
41290;DHT22;36117;46.680;11.154;2022-08-24T10:30:20;41.60;24.20
41290;DHT22;36117;46.680;11.154;2022-08-24T10:33:14;38.50;25.30
41290;DHT22;36117;46.680;11.154;2022-08-24T10:35:54;38.90;26.00
41290;DHT22;36117;46.680;11.154;2022-08-24T10:44:11;39.00;26.30
41290;DHT22;36117;46.680;11.154;2022-08-24T10:46:54;38.60;26.40
41290;DHT22;36117;46.680;11.154;2022-08-24T10:54:27;38.40;26.00
41290;DHT22;36117;46.680;11.154;2022-08-24T10:59:28;37.90;26.50
41290;DHT22;36117;46.680;11.154;2022-08-24T11:02:01;37.50;27.00
41290;DHT22;36117;46.680;11.154;2022-08-24T11:04:32;36.90;27.40
41290;DHT22;36117;46.680;11.154;2022-08-24T11:07:17;36.20;27.40
41290;DHT22;36117;46.680;11.154;2022-08-24T11:12:29;36.10;26.90
41290;DHT22;36117;46.680;11.154;2022-08-24T11:14:59;36.60;27.30
41290;DHT22;36117;46.680;11.154;2022-08-24T11:17:27;36.20;26.90
41290;DHT22;36117;46.680;11.154;2022-08-24T11:19:54;36.30;27.60
41290;DHT22;36117;46.680;11.154;2022-08-24T11:22:37;36.30;27.50
41290;DHT22;36117;46.680;11.154;2022-08-24T11:25:08;37.00;27.60
41290;DHT22;36117;46.680;11.154;2022-08-24T11:27:45;36.90;27.50
41290;DHT22;36117;46.680;11.154;2022-08-24T11:30:22;36.50;27.60
41290;DHT22;36117;46.680;11.154;2022-08-24T11:32:58;35.50;28.00
41290;DHT22;36117;46.680;11.154;2022-08-24T11:38:04;35.50;28.60
41290;DHT22;36117;46.680;11.154;2022-08-24T11:40:35;36.00;28.40
41290;DHT22;36117;46.680;11.154;2022-08-24T11:46:05;36.60;28.20
41290;DHT22;36117;46.680;11.154;2022-08-24T11:51:40;36.00;27.10
41290;DHT22;36117;46.680;11.154;2022-08-24T11:57:08;35.20;26.90
41290;DHT22;36117;46.680;11.154;2022-08-24T11:59:55;35.00;26.90
41290;DHT22;36117;46.680;11.154;2022-08-24T12:02:38;34.90;26.70
41290;DHT22;36117;46.680;11.154;2022-08-24T12:05:47;35.20;26.60
41290;DHT22;36117;46.680;11.154;2022-08-24T12:08:42;35.80;26.20
41290;DHT22;36117;46.680;11.154;2022-08-24T12:11:35;35.20;26.90
41290;DHT22;36117;46.680;11.154;2022-08-24T12:14:32;35.10;27.50
41290;DHT22;36117;46.680;11.154;2022-08-24T12:19:49;35.60;27.50
41290;DHT22;36117;46.680;11.154;2022-08-24T12:22:18;35.70;27.60
41290;DHT22;36117;46.680;11.154;2022-08-24T12:24:56;36.00;27.30
41290;DHT22;36117;46.680;11.154;2022-08-24T12:27:33;36.00;27.30
41290;DHT22;36117;46.680;11.154;2022-08-24T12:30:11;35.50;27.20
41290;DHT22;36117;46.680;11.154;2022-08-24T12:32:50;35.50;26.80
41290;DHT22;36117;46.680;11.154;2022-08-24T12:35:27;35.60;26.70
41290;DHT22;36117;46.680;11.154;2022-08-24T12:38:22;35.10;27.30
41290;DHT22;36117;46.680;11.154;2022-08-24T12:43:41;35.50;26.30
41290;DHT22;36117;46.680;11.154;2022-08-24T12:46:10;35.80;26.70
41290;DHT22;36117;46.680;11.154;2022-08-24T12:48:47;36.10;27.00
41290;DHT22;36117;46.680;11.154;2022-08-24T12:52:20;36.40;27.00
41290;DHT22;36117;46.680;11.154;2022-08-24T12:57:52;35.90;26.70
41290;DHT22;36117;46.680;11.154;2022-08-24T13:03:06;35.60;26.70
41290;DHT22;36117;46.680;11.154;2022-08-24T13:05:59;35.60;26.30
41290;DHT22;36117;46.680;11.154;2022-08-24T13:08:39;35.80;26.20
41290;DHT22;36117;46.680;11.154;2022-08-24T13:13:47;37.20;25.50
41290;DHT22;36117;46.680;11.154;2022-08-24T13:16:46;37.10;25.40
41290;DHT22;36117;46.680;11.154;2022-08-24T13:21:55;37.20;25.90
41290;DHT22;36117;46.680;11.154;2022-08-24T13:29:53;36.40;26.40
41290;DHT22;36117;46.680;11.154;2022-08-24T13:32:35;36.60;26.70
41290;DHT22;36117;46.680;11.154;2022-08-24T13:40:52;36.30;26.10
41290;DHT22;36117;46.680;11.154;2022-08-24T13:43:28;36.30;26.10
41290;DHT22;36117;46.680;11.154;2022-08-24T13:49:00;36.40;25.90
41290;DHT22;36117;46.680;11.154;2022-08-24T13:51:43;37.00;26.30
41290;DHT22;36117;46.680;11.154;2022-08-24T14:05:26;37.20;25.90
41290;DHT22;36117;46.680;11.154;2022-08-24T14:11:09;36.90;23.80
41290;DHT22;36117;46.680;11.154;2022-08-24T14:13:42;36.40;25.50
41290;DHT22;36117;46.680;11.154;2022-08-24T14:21:59;36.20;25.90
41290;DHT22;36117;46.680;11.154;2022-08-24T14:27:36;36.20;26.40
41290;DHT22;36117;46.680;11.154;2022-08-24T14:41:09;36.70;26.10
41290;DHT22;36117;46.680;11.154;2022-08-24T14:49:40;36.30;26.30
41290;DHT22;36117;46.680;11.154;2022-08-24T14:52:22;36.30;26.80
41290;DHT22;36117;46.680;11.154;2022-08-24T14:55:11;36.90;26.50
41290;DHT22;36117;46.680;11.154;2022-08-24T14:58:00;37.20;26.30
41290;DHT22;36117;46.680;11.154;2022-08-24T15:04:08;37.20;26.20
41290;DHT22;36117;46.680;11.154;2022-08-24T15:09:21;36.90;26.20
41290;DHT22;36117;46.680;11.154;2022-08-24T15:11:48;36.90;26.40
41290;DHT22;36117;46.680;11.154;2022-08-24T15:14:39;37.10;26.80
41290;DHT22;36117;46.680;11.154;2022-08-24T15:17:11;37.50;26.50
41290;DHT22;36117;46.680;11.154;2022-08-24T15:19:57;37.70;26.50
41290;DHT22;36117;46.680;11.154;2022-08-24T15:22:39;37.60;26.40
41290;DHT22;36117;46.680;11.154;2022-08-24T15:27:55;37.70;26.40
41290;DHT22;36117;46.680;11.154;2022-08-24T15:30:28;37.50;25.90
41290;DHT22;36117;46.680;11.154;2022-08-24T15:33:14;37.60;26.20
41290;DHT22;36117;46.680;11.154;2022-08-24T15:35:46;37.40;26.30
41290;DHT22;36117;46.680;11.154;2022-08-24T15:41:01;37.40;27.00
41290;DHT22;36117;46.680;11.154;2022-08-24T15:43:27;37.40;26.30
41290;DHT22;36117;46.680;11.154;2022-08-24T15:45:54;37.30;26.70
41290;DHT22;36117;46.680;11.154;2022-08-24T15:48:23;36.90;26.30
41290;DHT22;36117;46.680;11.154;2022-08-24T15:50:53;36.80;26.40
41290;DHT22;36117;46.680;11.154;2022-08-24T15:53:39;36.50;27.20
41290;DHT22;36117;46.680;11.154;2022-08-24T15:56:25;36.40;26.80
41290;DHT22;36117;46.680;11.154;2022-08-24T15:58:51;36.40;27.20
41290;DHT22;36117;46.680;11.154;2022-08-24T16:01:21;36.40;27.00
41290;DHT22;36117;46.680;11.154;2022-08-24T16:04:10;36.30;27.00
41290;DHT22;36117;46.680;11.154;2022-08-24T16:06:38;36.70;26.90
41290;DHT22;36117;46.680;11.154;2022-08-24T16:11:58;36.40;27.00
41290;DHT22;36117;46.680;11.154;2022-08-24T16:14:33;36.60;27.00
41290;DHT22;36117;46.680;11.154;2022-08-24T16:17:01;36.30;26.60
41290;DHT22;36117;46.680;11.154;2022-08-24T16:19:51;36.20;27.10
41290;DHT22;36117;46.680;11.154;2022-08-24T16:33:10;35.70;28.10
41290;DHT22;36117;46.680;11.154;2022-08-24T16:35:40;35.70;28.50
41290;DHT22;36117;46.680;11.154;2022-08-24T16:38:05;35.60;28.70
41290;DHT22;36117;46.680;11.154;2022-08-24T16:40:31;35.70;28.60
41290;DHT22;36117;46.680;11.154;2022-08-24T16:42:58;35.70;28.60
41290;DHT22;36117;46.680;11.154;2022-08-24T16:45:24;36.00;28.40
41290;DHT22;36117;46.680;11.154;2022-08-24T16:47:49;35.90;28.70
41290;DHT22;36117;46.680;11.154;2022-08-24T16:50:18;35.50;29.10
41290;DHT22;36117;46.680;11.154;2022-08-24T16:52:45;35.60;29.30
41290;DHT22;36117;46.680;11.154;2022-08-24T16:55:11;35.70;29.30
41290;DHT22;36117;46.680;11.154;2022-08-24T16:57:37;35.50;29.20
41290;DHT22;36117;46.680;11.154;2022-08-24T17:00:10;35.40;29.70
41290;DHT22;36117;46.680;11.154;2022-08-24T17:02:34;35.30;29.60
41290;DHT22;36117;46.680;11.154;2022-08-24T17:05:01;35.10;30.10
41290;DHT22;36117;46.680;11.154;2022-08-24T17:07:28;35.20;30.20
41290;DHT22;36117;46.680;11.154;2022-08-24T17:09:55;34.90;30.90
41290;DHT22;36117;46.680;11.154;2022-08-24T17:12:22;34.50;31.80
41290;DHT22;36117;46.680;11.154;2022-08-24T17:14:48;34.20;31.90
41290;DHT22;36117;46.680;11.154;2022-08-24T17:17:16;34.30;32.00
41290;DHT22;36117;46.680;11.154;2022-08-24T17:19:43;33.90;32.50
41290;DHT22;36117;46.680;11.154;2022-08-24T17:22:11;33.00;33.70
41290;DHT22;36117;46.680;11.154;2022-08-24T17:24:37;33.10;33.70
41290;DHT22;36117;46.680;11.154;2022-08-24T17:27:03;33.10;33.70
41290;DHT22;36117;46.680;11.154;2022-08-24T17:29:29;33.10;33.30
41290;DHT22;36117;46.680;11.154;2022-08-24T17:31:55;33.00;33.70
41290;DHT22;36117;46.680;11.154;2022-08-24T17:34:23;33.10;33.50
41290;DHT22;36117;46.680;11.154;2022-08-24T17:36:52;32.80;33.80
41290;DHT22;36117;46.680;11.154;2022-08-24T17:39:18;33.00;34.00
41290;DHT22;36117;46.680;11.154;2022-08-24T17:41:46;33.20;33.60
41290;DHT22;36117;46.680;11.154;2022-08-24T17:44:16;33.10;33.50
41290;DHT22;36117;46.680;11.154;2022-08-24T17:46:46;32.80;33.20
41290;DHT22;36117;46.680;11.154;2022-08-24T17:49:14;32.40;33.00
41290;DHT22;36117;46.680;11.154;2022-08-24T17:51:43;32.00;33.00
41290;DHT22;36117;46.680;11.154;2022-08-24T17:54:09;32.00;33.40
41290;DHT22;36117;46.680;11.154;2022-08-24T17:56:35;31.80;34.00
41290;DHT22;36117;46.680;11.154;2022-08-24T17:59:12;31.50;34.00
41290;DHT22;36117;46.680;11.154;2022-08-24T18:01:48;31.00;33.90
41290;DHT22;36117;46.680;11.154;2022-08-24T18:04:15;30.90;34.60
41290;DHT22;36117;46.680;11.154;2022-08-24T18:06:42;31.00;34.90
41290;DHT22;36117;46.680;11.154;2022-08-24T18:09:17;31.20;35.70
41290;DHT22;36117;46.680;11.154;2022-08-24T18:11:43;31.20;35.20
41290;DHT22;36117;46.680;11.154;2022-08-24T18:14:09;31.50;35.20
41290;DHT22;36117;46.680;11.154;2022-08-24T18:16:35;31.60;35.20
41290;DHT22;36117;46.680;11.154;2022-08-24T18:19:01;31.10;35.10
41290;DHT22;36117;46.680;11.154;2022-08-24T18:21:27;30.80;34.90
41290;DHT22;36117;46.680;11.154;2022-08-24T18:23:53;30.80;36.00
41290;DHT22;36117;46.680;11.154;2022-08-24T18:26:22;30.70;37.00
41290;DHT22;36117;46.680;11.154;2022-08-24T18:28:49;30.80;37.40
41290;DHT22;36117;46.680;11.154;2022-08-24T18:31:15;30.60;37.80
41290;DHT22;36117;46.680;11.154;2022-08-24T18:33:41;30.30;37.10
41290;DHT22;36117;46.680;11.154;2022-08-24T18:36:07;30.00;37.60
41290;DHT22;36117;46.680;11.154;2022-08-24T18:38:33;29.80;37.60
41290;DHT22;36117;46.680;11.154;2022-08-24T18:41:00;30.10;37.90
41290;DHT22;36117;46.680;11.154;2022-08-24T18:43:27;30.10;38.70
41290;DHT22;36117;46.680;11.154;2022-08-24T18:45:54;30.10;38.20
41290;DHT22;36117;46.680;11.154;2022-08-24T18:48:20;29.80;37.60
41290;DHT22;36117;46.680;11.154;2022-08-24T18:50:46;29.60;39.00
41290;DHT22;36117;46.680;11.154;2022-08-24T18:53:14;29.40;37.70
41290;DHT22;36117;46.680;11.154;2022-08-24T18:55:40;29.50;38.60